Time;durP1;ratioP1;P1;durP2;ratioP2;P2;SDS_P1;SDS_P2;PMS_P1;PMS_P2;Temp;Humidity;BMP_temperature;BMP_pressure;BME280_temperature;BME280_humidity;BME280_pressure;Samples;Min_cycle;Max_cycle;Signal;HPM_P1;HPM_P2
2022/07/02 00:01:31;;;;;;;8.47;6.33;;;;;;;;;;4983667;28;20279;-74
2022/07/02 00:03:56;;;;;;;11.23;5.88;;;;;;;;;;5003134;28;20290;-74
2022/07/02 00:06:24;;;;;;;8.07;6.05;;;;;;;;;;4986429;28;20034;-74
2022/07/02 00:08:50;;;;;;;8.68;7.07;;;;;;;;;;4987537;28;20029;-74
2022/07/02 00:11:16;;;;;;;13.50;8.38;;;;;;;;;;4992715;28;20542;-74
2022/07/02 00:13:41;;;;;;;13.60;9.00;;;;;;;;;;4998269;28;20068;-74
2022/07/02 00:16:10;;;;;;;18.30;9.77;;;;;;;;;;4988365;28;20038;-74
2022/07/02 00:18:36;;;;;;;15.00;8.82;;;;;;;;;;4990208;28;20049;-74
2022/07/02 00:21:02;;;;;;;12.13;8.80;;;;;;;;;;4994103;28;20062;-74
2022/07/02 00:23:27;;;;;;;16.50;9.18;;;;;;;;;;4996710;28;20108;-74
2022/07/02 00:25:54;;;;;;;11.90;8.68;;;;;;;;;;4985866;28;20112;-74
2022/07/02 00:28:22;;;;;;;9.50;8.07;;;;;;;;;;4987249;28;20117;-74
2022/07/02 00:30:47;;;;;;;13.88;8.05;;;;;;;;;;5001618;28;20034;-74
2022/07/02 00:33:14;;;;;;;9.05;7.05;;;;;;;;;;5000393;28;20252;-74
2022/07/02 00:35:39;;;;;;;18.20;7.80;;;;;;;;;;4993971;28;20030;-74
2022/07/02 00:38:04;;;;;;;10.40;7.95;;;;;;;;;;4981721;28;20037;-74
2022/07/02 00:40:30;;;;;;;13.07;7.43;;;;;;;;;;4983174;28;20034;-74
2022/07/02 00:42:56;;;;;;;14.98;8.07;;;;;;;;;;4981038;28;20272;-73
2022/07/02 00:45:21;;;;;;;8.35;7.45;;;;;;;;;;4981422;28;20026;-74
2022/07/02 00:47:47;;;;;;;11.85;7.28;;;;;;;;;;4982931;28;20034;-74
2022/07/02 00:50:12;;;;;;;9.85;7.35;;;;;;;;;;4984602;28;20104;-74
2022/07/02 00:52:38;;;;;;;8.77;7.90;;;;;;;;;;5006661;28;20060;-74
2022/07/02 00:55:03;;;;;;;11.63;6.83;;;;;;;;;;4987845;28;20039;-74
2022/07/02 00:57:30;;;;;;;12.25;7.45;;;;;;;;;;4980242;28;20295;-74
2022/07/02 00:59:56;;;;;;;8.52;7.03;;;;;;;;;;4981226;28;20052;-74
2022/07/02 01:02:22;;;;;;;11.63;8.70;;;;;;;;;;4993050;28;20038;-74
2022/07/02 01:04:48;;;;;;;14.18;10.48;;;;;;;;;;4987512;28;20022;-74
2022/07/02 01:07:15;;;;;;;17.35;10.07;;;;;;;;;;4979453;28;20029;-74
2022/07/02 01:12:29;;;;;;;16.77;10.25;;;;;;;;;;4983843;28;20032;-74
2022/07/02 01:14:55;;;;;;;17.07;10.17;;;;;;;;;;4975076;28;20034;-74
2022/07/02 01:17:21;;;;;;;12.70;9.38;;;;;;;;;;4984382;28;20279;-74
2022/07/02 01:19:46;;;;;;;14.68;9.43;;;;;;;;;;4977491;28;20505;-74
2022/07/02 01:22:19;;;;;;;12.73;9.25;;;;;;;;;;4979695;28;20034;-74
2022/07/02 01:24:45;;;;;;;23.45;8.82;;;;;;;;;;4985295;28;20394;-73
2022/07/02 01:27:11;;;;;;;10.38;8.45;;;;;;;;;;4981075;28;20038;-74
2022/07/02 01:29:36;;;;;;;12.27;7.90;;;;;;;;;;4980806;28;20018;-73
2022/07/02 01:32:02;;;;;;;10.40;8.82;;;;;;;;;;4975927;28;20037;-73
2022/07/02 01:34:28;;;;;;;12.00;8.65;;;;;;;;;;4974348;28;20227;-73
2022/07/02 01:36:53;;;;;;;14.77;8.63;;;;;;;;;;4978043;28;20031;-73
2022/07/02 01:39:25;;;;;;;9.18;8.02;;;;;;;;;;4983402;28;20542;-74
2022/07/02 01:41:50;;;;;;;10.65;7.80;;;;;;;;;;4979860;28;20801;-74
2022/07/02 01:44:15;;;;;;;12.82;8.27;;;;;;;;;;4979668;28;20042;-74
2022/07/02 01:46:40;;;;;;;12.43;8.15;;;;;;;;;;4976276;28;20030;-74
2022/07/02 01:49:06;;;;;;;13.93;7.77;;;;;;;;;;4984130;28;20030;-74
2022/07/02 01:51:31;;;;;;;10.90;7.60;;;;;;;;;;4979604;28;20299;-74
2022/07/02 01:53:57;;;;;;;12.37;8.03;;;;;;;;;;4984248;28;20380;-74
2022/07/02 01:56:22;;;;;;;13.75;8.88;;;;;;;;;;4980602;28;20291;-73
2022/07/02 01:58:47;;;;;;;16.87;8.60;;;;;;;;;;4977885;28;20023;-74
2022/07/02 02:01:12;;;;;;;8.52;7.65;;;;;;;;;;4981272;28;20796;-74
2022/07/02 02:03:38;;;;;;;11.27;7.60;;;;;;;;;;4982448;28;20030;-74
2022/07/02 02:06:03;;;;;;;11.02;8.48;;;;;;;;;;4986740;28;20365;-74
2022/07/02 02:08:28;;;;;;;10.90;7.70;;;;;;;;;;4985012;28;20022;-74
2022/07/02 02:10:53;;;;;;;15.40;8.15;;;;;;;;;;4988643;28;20484;-74
2022/07/02 02:13:18;;;;;;;8.33;7.13;;;;;;;;;;4982793;28;20690;-74
2022/07/02 02:15:43;;;;;;;10.37;6.70;;;;;;;;;;4980877;28;20396;-74
2022/07/02 02:18:09;;;;;;;7.53;6.60;;;;;;;;;;4982025;28;20268;-75
2022/07/02 02:20:34;;;;;;;8.40;6.90;;;;;;;;;;4977580;28;20264;-74
2022/07/02 02:23:01;;;;;;;11.95;6.70;;;;;;;;;;4992234;28;20272;-74
2022/07/02 02:25:26;;;;;;;8.57;7.07;;;;;;;;;;4982387;28;20483;-74
2022/07/02 02:27:51;;;;;;;9.47;7.10;;;;;;;;;;4983428;28;20042;-74
2022/07/02 02:30:16;;;;;;;11.67;6.60;;;;;;;;;;4981558;28;20282;-74
2022/07/02 02:32:41;;;;;;;9.53;6.27;;;;;;;;;;4978371;28;20743;-74
2022/07/02 02:35:07;;;;;;;9.33;6.67;;;;;;;;;;4978490;28;20271;-74
2022/07/02 02:37:32;;;;;;;11.30;7.07;;;;;;;;;;4975724;28;20754;-74
2022/07/02 02:39:57;;;;;;;11.30;6.47;;;;;;;;;;4979901;28;20022;-74
2022/07/02 02:42:22;;;;;;;14.63;7.10;;;;;;;;;;4983556;28;20027;-74
2022/07/02 02:44:47;;;;;;;11.65;6.57;;;;;;;;;;4979359;28;20452;-74
2022/07/02 02:47:13;;;;;;;8.20;6.27;;;;;;;;;;4991866;28;20022;-74
2022/07/02 02:49:38;;;;;;;12.53;7.47;;;;;;;;;;4979041;28;20276;-74
2022/07/02 02:52:03;;;;;;;14.33;8.63;;;;;;;;;;4982355;28;20283;-74
2022/07/02 02:54:28;;;;;;;11.68;7.03;;;;;;;;;;4983456;28;20521;-73
2022/07/02 02:56:53;;;;;;;9.93;7.23;;;;;;;;;;4981476;28;20531;-74
2022/07/02 02:59:19;;;;;;;12.80;8.20;;;;;;;;;;4978527;28;20645;-73
2022/07/02 03:01:44;;;;;;;8.17;7.30;;;;;;;;;;4977940;28;20290;-74
2022/07/02 03:04:09;;;;;;;14.03;7.77;;;;;;;;;;4980740;28;20268;-74
2022/07/02 03:06:34;;;;;;;10.32;7.07;;;;;;;;;;4974269;28;20383;-74
2022/07/02 03:09:00;;;;;;;12.25;7.20;;;;;;;;;;4978137;28;20030;-74
2022/07/02 03:11:25;;;;;;;13.43;7.53;;;;;;;;;;4978754;28;20030;-74
2022/07/02 03:13:50;;;;;;;12.95;7.20;;;;;;;;;;4981985;28;21147;-74
2022/07/02 03:16:15;;;;;;;9.70;6.90;;;;;;;;;;4978764;28;20373;-73
2022/07/02 03:18:40;;;;;;;12.87;8.03;;;;;;;;;;4975532;28;20506;-74
2022/07/02 03:21:06;;;;;;;18.30;8.90;;;;;;;;;;4973556;28;20268;-74
2022/07/02 03:23:31;;;;;;;15.67;8.50;;;;;;;;;;4972202;28;20407;-74
2022/07/02 03:25:56;;;;;;;16.17;8.03;;;;;;;;;;4976512;28;20355;-74
2022/07/02 03:28:21;;;;;;;12.65;8.02;;;;;;;;;;4973378;28;20387;-74
2022/07/02 03:30:46;;;;;;;12.53;8.43;;;;;;;;;;4983088;28;20030;-73
2022/07/02 03:33:11;;;;;;;12.93;7.80;;;;;;;;;;4995005;28;20279;-73
2022/07/02 03:35:37;;;;;;;11.80;8.30;;;;;;;;;;4997620;28;20267;-73
2022/07/02 03:38:03;;;;;;;12.93;7.70;;;;;;;;;;4992546;28;20038;-73
2022/07/02 03:40:28;;;;;;;14.00;8.00;;;;;;;;;;4982341;28;20300;-73
2022/07/02 03:42:53;;;;;;;13.57;7.43;;;;;;;;;;4984084;28;20576;-73
2022/07/02 03:45:18;;;;;;;13.97;8.50;;;;;;;;;;4983878;28;20026;-73
2022/07/02 03:47:44;;;;;;;9.38;7.63;;;;;;;;;;4991759;28;20294;-73
2022/07/02 03:50:09;;;;;;;11.63;8.65;;;;;;;;;;4981005;28;20025;-73
2022/07/02 03:52:36;;;;;;;17.77;8.35;;;;;;;;;;4992515;28;20100;-73
2022/07/02 03:55:02;;;;;;;9.63;7.30;;;;;;;;;;4998033;28;20037;-74
2022/07/02 03:57:27;;;;;;;9.77;7.60;;;;;;;;;;4994429;28;20022;-74
2022/07/02 03:59:52;;;;;;;15.32;8.75;;;;;;;;;;4987262;28;20511;-73
2022/07/02 04:02:17;;;;;;;14.82;8.18;;;;;;;;;;4995331;28;20031;-73
2022/07/02 04:04:42;;;;;;;14.90;9.20;;;;;;;;;;4986817;28;20050;-73
2022/07/02 04:07:07;;;;;;;18.08;9.02;;;;;;;;;;4987015;28;20030;-74
2022/07/02 04:09:33;;;;;;;9.55;8.00;;;;;;;;;;4992119;28;20037;-74
2022/07/02 04:11:58;;;;;;;9.13;7.67;;;;;;;;;;4993116;28;20022;-74
2022/07/02 04:14:23;;;;;;;14.87;8.67;;;;;;;;;;4991637;28;20773;-73
2022/07/02 04:16:48;;;;;;;10.30;7.87;;;;;;;;;;4984294;28;20271;-74
2022/07/02 04:19:13;;;;;;;12.80;8.13;;;;;;;;;;4992969;28;20306;-74
2022/07/02 04:21:38;;;;;;;10.97;8.27;;;;;;;;;;4989012;28;20026;-74
2022/07/02 04:24:04;;;;;;;11.50;7.87;;;;;;;;;;4996992;28;20353;-74
2022/07/02 04:26:29;;;;;;;15.48;7.47;;;;;;;;;;4991414;28;20274;-74
2022/07/02 04:28:54;;;;;;;11.80;7.77;;;;;;;;;;4985196;28;20030;-75
2022/07/02 04:31:19;;;;;;;14.50;7.80;;;;;;;;;;4982125;28;20306;-74
2022/07/02 04:33:45;;;;;;;19.87;8.97;;;;;;;;;;4978062;28;20081;-75
2022/07/02 04:36:10;;;;;;;13.10;8.73;;;;;;;;;;4978310;28;21037;-75
2022/07/02 04:38:35;;;;;;;12.48;7.90;;;;;;;;;;4985623;28;20022;-76
2022/07/02 04:41:01;;;;;;;11.63;8.77;;;;;;;;;;4979176;28;20173;-74
2022/07/02 04:43:26;;;;;;;10.40;8.30;;;;;;;;;;4985833;28;20283;-74
2022/07/02 04:45:51;;;;;;;13.80;8.95;;;;;;;;;;4988702;28;20399;-75
2022/07/02 04:48:16;;;;;;;14.37;8.50;;;;;;;;;;4984078;28;20038;-76
2022/07/02 04:50:41;;;;;;;12.70;9.50;;;;;;;;;;4989836;28;20276;-76
2022/07/02 04:53:06;;;;;;;22.77;9.10;;;;;;;;;;4984303;28;20268;-73
2022/07/02 04:55:32;;;;;;;9.47;8.47;;;;;;;;;;4981408;28;20292;-74
2022/07/02 04:57:57;;;;;;;11.70;7.97;;;;;;;;;;4977575;28;20358;-76
2022/07/02 05:00:22;;;;;;;16.17;8.95;;;;;;;;;;4979608;28;20026;-76
2022/07/02 05:02:47;;;;;;;16.67;8.80;;;;;;;;;;4981987;28;20019;-75
2022/07/02 05:05:12;;;;;;;22.73;10.83;;;;;;;;;;4976823;28;20057;-75
2022/07/02 05:07:37;;;;;;;11.20;8.93;;;;;;;;;;4975388;28;20276;-75
2022/07/02 05:10:03;;;;;;;12.87;9.20;;;;;;;;;;4987527;28;20343;-75
2022/07/02 05:12:28;;;;;;;11.98;9.25;;;;;;;;;;4980276;28;20037;-74
2022/07/02 05:14:53;;;;;;;11.20;8.10;;;;;;;;;;4979578;28;20023;-74
2022/07/02 05:17:18;;;;;;;12.33;9.47;;;;;;;;;;4973804;28;20319;-74
2022/07/02 05:19:44;;;;;;;13.80;10.25;;;;;;;;;;4980870;28;20145;-73
2022/07/02 05:22:10;;;;;;;15.15;9.63;;;;;;;;;;4981157;28;20020;-73
2022/07/02 05:24:35;;;;;;;14.25;8.93;;;;;;;;;;4980730;28;20263;-74
2022/07/02 05:27:00;;;;;;;13.35;9.52;;;;;;;;;;4979842;28;20030;-74
2022/07/02 05:29:25;;;;;;;12.73;8.13;;;;;;;;;;4982689;28;20061;-74
2022/07/02 05:31:51;;;;;;;11.02;8.82;;;;;;;;;;4982067;28;20268;-74
2022/07/02 05:34:16;;;;;;;12.87;8.10;;;;;;;;;;4976210;28;20030;-74
2022/07/02 05:36:41;;;;;;;13.15;7.35;;;;;;;;;;4975516;28;20378;-75
2022/07/02 05:39:06;;;;;;;13.55;7.53;;;;;;;;;;4982608;28;20031;-75
2022/07/02 05:41:31;;;;;;;12.68;6.95;;;;;;;;;;4978741;28;20037;-74
2022/07/02 05:43:57;;;;;;;10.27;6.90;;;;;;;;;;4981393;28;20018;-74
2022/07/02 05:46:22;;;;;;;10.03;6.40;;;;;;;;;;4984467;28;20817;-74
2022/07/02 05:48:47;;;;;;;8.48;7.30;;;;;;;;;;4983728;28;20085;-74
2022/07/02 05:51:12;;;;;;;9.23;5.97;;;;;;;;;;4984704;28;20034;-74
2022/07/02 05:53:37;;;;;;;8.27;6.40;;;;;;;;;;4985042;28;20062;-74
2022/07/02 05:56:02;;;;;;;10.93;6.63;;;;;;;;;;4987247;28;20053;-73
2022/07/02 05:58:28;;;;;;;10.80;6.37;;;;;;;;;;4980925;28;20276;-73
2022/07/02 06:00:53;;;;;;;9.07;6.43;;;;;;;;;;4976028;28;20264;-73
2022/07/02 06:03:18;;;;;;;7.32;5.57;;;;;;;;;;4981695;28;20027;-73
2022/07/02 06:08:28;;;;;;;6.68;5.75;;;;;;;;;;4984532;28;20050;-73
2022/07/02 06:10:53;;;;;;;9.40;6.07;;;;;;;;;;4983365;28;20028;-73
2022/07/02 06:13:18;;;;;;;10.30;6.20;;;;;;;;;;4998977;28;20038;-72
2022/07/02 06:15:43;;;;;;;9.70;5.83;;;;;;;;;;4991349;28;20110;-73
2022/07/02 06:18:09;;;;;;;9.43;5.63;;;;;;;;;;4984864;28;20038;-72
2022/07/02 06:20:35;;;;;;;11.20;5.57;;;;;;;;;;4979628;28;20035;-73
2022/07/02 06:23:00;;;;;;;6.55;4.63;;;;;;;;;;4983911;28;20072;-73
2022/07/02 06:25:25;;;;;;;5.03;4.53;;;;;;;;;;4981180;28;20432;-74
2022/07/02 06:27:50;;;;;;;6.97;5.10;;;;;;;;;;4980721;28;20034;-73
2022/07/02 06:30:16;;;;;;;6.90;4.67;;;;;;;;;;4978082;28;20276;-73
2022/07/02 06:32:42;;;;;;;6.88;4.50;;;;;;;;;;4995832;28;20283;-73
2022/07/02 06:35:07;;;;;;;9.17;5.13;;;;;;;;;;4991841;28;20030;-74
2022/07/02 06:37:32;;;;;;;6.63;4.93;;;;;;;;;;4985811;28;20313;-72
2022/07/02 06:39:57;;;;;;;5.80;4.47;;;;;;;;;;4985205;28;20034;-74
2022/07/02 06:42:23;;;;;;;5.53;4.78;;;;;;;;;;4989958;28;20357;-73
2022/07/02 06:44:49;;;;;;;5.03;4.38;;;;;;;;;;4984968;28;20028;-73
2022/07/02 06:47:14;;;;;;;6.07;4.50;;;;;;;;;;4973933;28;20061;-73
2022/07/02 06:49:40;;;;;;;9.15;4.38;;;;;;;;;;4987014;28;20113;-73
2022/07/02 06:52:05;;;;;;;8.43;4.50;;;;;;;;;;4986220;28;20641;-73
2022/07/02 06:54:31;;;;;;;12.27;4.05;;;;;;;;;;4981816;28;20061;-73
2022/07/02 06:56:56;;;;;;;3.42;3.03;;;;;;;;;;4983791;28;20453;-73
2022/07/02 06:59:21;;;;;;;6.60;3.63;;;;;;;;;;4981029;28;20362;-73
2022/07/02 07:01:47;;;;;;;5.27;3.60;;;;;;;;;;4985889;28;20018;-73
2022/07/02 07:04:12;;;;;;;8.23;3.83;;;;;;;;;;4983811;28;20283;-73
2022/07/02 07:06:43;;;;;;;3.28;2.97;;;;;;;;;;4978653;28;20401;-74
2022/07/02 07:09:09;;;;;;;5.18;3.50;;;;;;;;;;4979019;28;20465;-73
2022/07/02 07:11:34;;;;;;;3.00;2.55;;;;;;;;;;4980213;28;20030;-74
2022/07/02 07:13:59;;;;;;;5.00;2.75;;;;;;;;;;4981271;28;20060;-73
2022/07/02 07:16:24;;;;;;;5.25;2.15;;;;;;;;;;4972319;28;20041;-73
2022/07/02 07:18:59;;;;;;;2.60;1.23;;;;;;;;;;4978690;28;20454;-73
2022/07/02 07:21:25;;;;;;;3.60;1.92;;;;;;;;;;4977460;28;20022;-75
2022/07/02 07:23:50;;;;;;;3.00;1.83;;;;;;;;;;4979071;28;20027;-75
2022/07/02 07:26:15;;;;;;;4.65;2.20;;;;;;;;;;4990136;28;20070;-73
2022/07/02 07:28:40;;;;;;;5.17;2.00;;;;;;;;;;4985304;28;20034;-73
2022/07/02 07:31:06;;;;;;;3.00;1.80;;;;;;;;;;4982424;28;20512;-73
2022/07/02 07:33:31;;;;;;;5.10;1.70;;;;;;;;;;4983655;28;20278;-74
2022/07/02 07:35:57;;;;;;;3.97;1.50;;;;;;;;;;4986578;28;20034;-75
2022/07/02 07:38:22;;;;;;;3.60;1.55;;;;;;;;;;4979899;28;20037;-74
2022/07/02 07:40:47;;;;;;;4.50;1.80;;;;;;;;;;4981326;28;20077;-72
2022/07/02 07:43:12;;;;;;;5.37;2.10;;;;;;;;;;4980109;28;20264;-71
2022/07/02 07:45:37;;;;;;;3.80;1.45;;;;;;;;;;4981513;28;20268;-70
2022/07/02 07:48:03;;;;;;;4.33;1.80;;;;;;;;;;4980032;28;20046;-70
2022/07/02 07:50:28;;;;;;;5.15;2.08;;;;;;;;;;4978174;28;20281;-71
2022/07/02 07:52:53;;;;;;;2.13;1.35;;;;;;;;;;4983839;28;20025;-71
2022/07/02 07:55:19;;;;;;;4.00;1.53;;;;;;;;;;4984630;28;20110;-73
2022/07/02 07:57:44;;;;;;;4.13;1.70;;;;;;;;;;4980603;28;20041;-74
2022/07/02 08:00:09;;;;;;;3.70;1.50;;;;;;;;;;4980645;28;20270;-75
2022/07/02 08:02:34;;;;;;;4.18;1.55;;;;;;;;;;4983466;28;20029;-72
2022/07/02 08:05:00;;;;;;;3.57;1.70;;;;;;;;;;4978041;28;20022;-73
2022/07/02 08:07:25;;;;;;;4.00;1.25;;;;;;;;;;4980651;28;20367;-70
2022/07/02 08:09:54;;;;;;;5.13;1.60;;;;;;;;;;4984138;28;20477;-72
2022/07/02 08:12:22;;;;;;;4.07;1.73;;;;;;;;;;4983989;28;20388;-72
2022/07/02 08:14:47;;;;;;;3.40;1.50;;;;;;;;;;4991098;28;20030;-72
2022/07/02 08:17:13;;;;;;;3.13;1.30;;;;;;;;;;4981054;28;20038;-74
2022/07/02 08:19:38;;;;;;;7.15;2.00;;;;;;;;;;4985680;28;20519;-70
2022/07/02 08:22:03;;;;;;;9.75;1.77;;;;;;;;;;4977060;28;20030;-72
2022/07/02 08:24:29;;;;;;;4.03;1.77;;;;;;;;;;4983177;28;20369;-72
2022/07/02 08:26:54;;;;;;;7.55;1.77;;;;;;;;;;4980007;28;20461;-72
2022/07/02 08:29:19;;;;;;;2.15;1.27;;;;;;;;;;4985663;28;20105;-73
2022/07/02 08:31:44;;;;;;;3.95;1.60;;;;;;;;;;4981444;28;20141;-73
2022/07/02 08:34:10;;;;;;;2.73;1.70;;;;;;;;;;4984444;28;20030;-72
2022/07/02 08:36:35;;;;;;;4.43;2.10;;;;;;;;;;4984241;28;20365;-71
2022/07/02 08:39:00;;;;;;;7.32;2.00;;;;;;;;;;4985730;28;20080;-74
2022/07/02 08:41:25;;;;;;;4.43;1.60;;;;;;;;;;4994713;28;20026;-73
2022/07/02 08:43:53;;;;;;;2.88;1.67;;;;;;;;;;4991372;28;20061;-72
2022/07/02 08:46:18;;;;;;;6.95;1.92;;;;;;;;;;4981532;28;20066;-72
2022/07/02 08:48:44;;;;;;;3.45;1.92;;;;;;;;;;4995427;28;20050;-72
2022/07/02 08:51:10;;;;;;;3.45;2.17;;;;;;;;;;5001926;28;20026;-73
2022/07/02 08:53:35;;;;;;;4.82;1.90;;;;;;;;;;4999073;28;20026;-72
2022/07/02 08:56:01;;;;;;;3.92;1.90;;;;;;;;;;4994134;28;20030;-73
2022/07/02 08:58:26;;;;;;;6.20;2.33;;;;;;;;;;4992656;28;20495;-71
2022/07/02 09:00:55;;;;;;;4.50;1.70;;;;;;;;;;4983484;28;20030;-71
2022/07/02 09:03:21;;;;;;;4.00;1.73;;;;;;;;;;4985355;28;20028;-70
2022/07/02 09:05:49;;;;;;;7.50;1.90;;;;;;;;;;4990300;28;20113;-74
2022/07/02 09:08:15;;;;;;;4.03;1.80;;;;;;;;;;4983688;28;20965;-74
2022/07/02 09:10:40;;;;;;;2.45;1.80;;;;;;;;;;4984239;28;20049;-76
2022/07/02 09:13:05;;;;;;;5.80;1.77;;;;;;;;;;4987526;28;20073;-75
2022/07/02 09:15:31;;;;;;;6.82;1.85;;;;;;;;;;4989756;28;20363;-74
2022/07/02 09:17:56;;;;;;;2.45;1.50;;;;;;;;;;4988363;28;20018;-74
2022/07/02 09:20:22;;;;;;;3.58;1.88;;;;;;;;;;4983302;28;20026;-74
2022/07/02 09:22:49;;;;;;;4.40;1.92;;;;;;;;;;4991152;28;20049;-72
2022/07/02 09:25:18;;;;;;;4.65;1.95;;;;;;;;;;4987067;28;20424;-73
2022/07/02 09:27:45;;;;;;;4.40;2.03;;;;;;;;;;4986550;28;20153;-69
2022/07/02 09:30:12;;;;;;;4.45;1.60;;;;;;;;;;4985454;28;20030;-70
2022/07/02 09:32:38;;;;;;;2.78;1.65;;;;;;;;;;5005326;28;20024;-69
2022/07/02 09:35:03;;;;;;;3.08;1.90;;;;;;;;;;4991947;28;20057;-70
2022/07/02 09:37:28;;;;;;;2.75;1.48;;;;;;;;;;4986209;28;20113;-72
2022/07/02 09:39:57;;;;;;;4.67;1.80;;;;;;;;;;4987171;28;20036;-74
2022/07/02 09:42:32;;;;;;;2.60;1.77;;;;;;;;;;4987024;28;20025;-73
2022/07/02 09:44:58;;;;;;;5.95;1.42;;;;;;;;;;4996932;28;20459;-74
2022/07/02 09:47:30;;;;;;;2.97;1.50;;;;;;;;;;4984251;28;20491;-73
2022/07/02 09:49:55;;;;;;;6.47;2.00;;;;;;;;;;4980635;28;20033;-73
2022/07/02 09:52:20;;;;;;;6.73;2.90;;;;;;;;;;4984530;28;20027;-74
2022/07/02 09:54:46;;;;;;;5.13;2.67;;;;;;;;;;4987802;28;20382;-72
2022/07/02 09:57:12;;;;;;;7.97;2.17;;;;;;;;;;4990429;28;20021;-73
2022/07/02 09:59:38;;;;;;;5.07;2.40;;;;;;;;;;4983666;28;20018;-69
2022/07/02 10:02:03;;;;;;;3.08;1.73;;;;;;;;;;4985371;28;20229;-71
2022/07/02 10:04:29;;;;;;;6.25;2.50;;;;;;;;;;4987015;28;20029;-71
2022/07/02 10:06:54;;;;;;;5.85;2.45;;;;;;;;;;4986150;28;20119;-74
2022/07/02 10:09:21;;;;;;;5.03;1.83;;;;;;;;;;4987132;28;20030;-71
2022/07/02 10:11:46;;;;;;;5.32;1.85;;;;;;;;;;4989143;28;20279;-75
2022/07/02 10:14:13;;;;;;;7.60;1.98;;;;;;;;;;4999608;28;20054;-73
2022/07/02 10:16:39;;;;;;;7.10;2.22;;;;;;;;;;4979320;28;20050;-70
2022/07/02 10:19:06;;;;;;;7.05;2.22;;;;;;;;;;4991310;28;20030;-70
2022/07/02 10:21:31;;;;;;;5.80;2.30;;;;;;;;;;4987652;28;20019;-70
2022/07/02 10:23:57;;;;;;;4.15;1.95;;;;;;;;;;4984837;28;20036;-73
2022/07/02 10:26:22;;;;;;;7.05;2.33;;;;;;;;;;4987172;28;20388;-70
2022/07/02 10:28:48;;;;;;;6.72;2.40;;;;;;;;;;4984642;28;20058;-71
2022/07/02 10:31:19;;;;;;;24.80;3.97;;;;;;;;;;4986737;28;20022;-70
2022/07/02 10:34:00;;;;;;;6.15;2.67;;;;;;;;;;4979523;28;20153;-71
2022/07/02 10:36:26;;;;;;;10.98;2.35;;;;;;;;;;4989621;28;20030;-73
2022/07/02 10:39:00;;;;;;;3.72;2.40;;;;;;;;;;4987636;28;20030;-71
2022/07/02 10:41:30;;;;;;;6.20;2.08;;;;;;;;;;4985839;28;20105;-72
2022/07/02 10:43:56;;;;;;;7.85;2.35;;;;;;;;;;4977959;28;20105;-73
2022/07/02 10:46:22;;;;;;;3.53;2.17;;;;;;;;;;4976644;28;20437;-73
2022/07/02 10:48:48;;;;;;;10.10;2.45;;;;;;;;;;4979210;28;20117;-72
2022/07/02 10:51:33;;;;;;;10.85;3.13;;;;;;;;;;4976403;28;20022;-72
2022/07/02 10:54:07;;;;;;;2.85;1.75;;;;;;;;;;4977624;28;20038;-73
2022/07/02 10:56:46;;;;;;;3.70;1.90;;;;;;;;;;4978795;28;20034;-71
2022/07/02 10:59:21;;;;;;;4.25;1.95;;;;;;;;;;4979001;28;20030;-72
2022/07/02 11:01:46;;;;;;;2.00;1.58;;;;;;;;;;4986284;28;20049;-73
2022/07/02 11:04:20;;;;;;;7.40;1.98;;;;;;;;;;4992714;28;20046;-72
2022/07/02 11:06:45;;;;;;;;;;;;;;;;;;4974826;28;20113;-70
2022/07/02 11:09:10;;;;;;;3.85;1.70;;;;;;;;;;4979964;28;20048;-70
2022/07/02 11:11:35;;;;;;;9.07;1.98;;;;;;;;;;4983751;28;20081;-70
2022/07/02 11:14:02;;;;;;;2.92;1.70;;;;;;;;;;4988777;28;20136;-72
2022/07/02 11:16:33;;;;;;;4.35;1.55;;;;;;;;;;4977863;28;20070;-73
2022/07/02 11:18:59;;;;;;;3.55;1.38;;;;;;;;;;4983415;28;20022;-75
2022/07/02 11:21:25;;;;;;;3.10;1.60;;;;;;;;;;4983870;28;20061;-73
2022/07/02 11:23:50;;;;;;;6.35;1.75;;;;;;;;;;5000082;28;20084;-70
2022/07/02 11:26:16;;;;;;;6.63;1.75;;;;;;;;;;4981610;28;20018;-72
2022/07/02 11:28:43;;;;;;;6.03;1.95;;;;;;;;;;4986125;28;20449;-73
2022/07/02 11:31:10;;;;;;;5.28;1.52;;;;;;;;;;4989254;28;20150;-72
2022/07/02 11:33:36;;;;;;;2.67;1.52;;;;;;;;;;4983668;28;20137;-71
2022/07/02 11:36:01;;;;;;;4.82;1.63;;;;;;;;;;4981245;28;20291;-68
2022/07/02 11:38:26;;;;;;;2.53;1.70;;;;;;;;;;5002750;28;20638;-70
2022/07/02 11:40:51;;;;;;;3.70;1.60;;;;;;;;;;4991562;28;20074;-70
2022/07/02 11:43:17;;;;;;;4.07;1.70;;;;;;;;;;4996690;28;20387;-71
2022/07/02 11:45:47;;;;;;;5.68;1.55;;;;;;;;;;4980877;28;20018;-71
2022/07/02 11:48:22;;;;;;;3.55;1.40;;;;;;;;;;4988823;28;20037;-69
2022/07/02 11:50:55;;;;;;;4.93;1.20;;;;;;;;;;4984254;28;20034;-71
2022/07/02 11:53:20;;;;;;;2.08;1.13;;;;;;;;;;4988014;28;20023;-70
2022/07/02 11:55:45;;;;;;;5.17;1.53;;;;;;;;;;4986912;28;20022;-70
2022/07/02 11:58:10;;;;;;;4.70;1.23;;;;;;;;;;4984302;28;20279;-70
2022/07/02 12:00:35;;;;;;;1.80;1.20;;;;;;;;;;4991162;28;20379;-70
2022/07/02 12:03:10;;;;;;;4.90;1.60;;;;;;;;;;4985508;28;20055;-70
2022/07/02 12:05:35;;;;;;;9.73;2.45;;;;;;;;;;4986922;28;20034;-68
2022/07/02 12:08:01;;;;;;;2.95;1.10;;;;;;;;;;4985223;28;20053;-70
2022/07/02 12:10:26;;;;;;;4.07;1.23;;;;;;;;;;4998778;28;20061;-69
2022/07/02 12:12:51;;;;;;;10.50;1.90;;;;;;;;;;5002986;28;20033;-69
2022/07/02 12:15:16;;;;;;;9.20;2.90;;;;;;;;;;4993062;28;20484;-69
2022/07/02 12:17:48;;;;;;;5.43;2.00;;;;;;;;;;4980002;28;20041;-70
2022/07/02 12:20:15;;;;;;;6.78;3.30;;;;;;;;;;4995228;28;21586;-69
2022/07/02 12:22:40;;;;;;;2.50;1.27;;;;;;;;;;4992523;28;20022;-68
2022/07/02 12:25:06;;;;;;;2.43;1.57;;;;;;;;;;5002411;28;20014;-69
2022/07/02 12:27:34;;;;;;;2.15;1.65;;;;;;;;;;4986988;28;20018;-67
2022/07/02 12:30:09;;;;;;;4.43;1.60;;;;;;;;;;4985792;28;20137;-68
2022/07/02 12:32:38;;;;;;;4.97;1.55;;;;;;;;;;4986494;28;20068;-67
2022/07/02 12:35:06;;;;;;;1.67;1.38;;;;;;;;;;4985058;28;20069;-69
2022/07/02 12:37:33;;;;;;;5.78;2.03;;;;;;;;;;4994178;28;20076;-68
2022/07/02 12:40:05;;;;;;;3.00;1.45;;;;;;;;;;4978789;28;20054;-68
2022/07/02 12:42:33;;;;;;;4.38;1.70;;;;;;;;;;4984875;28;20084;-68
2022/07/02 12:44:59;;;;;;;1.73;1.10;;;;;;;;;;4983289;28;20049;-68
2022/07/02 12:47:26;;;;;;;1.98;1.05;;;;;;;;;;4980246;28;21381;-68
2022/07/02 12:49:52;;;;;;;4.57;1.05;;;;;;;;;;4992164;28;20058;-68
2022/07/02 12:52:17;;;;;;;1.05;0.98;;;;;;;;;;4979765;28;20448;-68
2022/07/02 12:54:42;;;;;;;4.13;1.00;;;;;;;;;;4993759;28;20052;-69
2022/07/02 12:57:26;;;;;;;1.20;0.90;;;;;;;;;;4983437;28;20025;-70
2022/07/02 12:59:52;;;;;;;1.75;0.88;;;;;;;;;;4980471;28;20037;-68
2022/07/02 13:02:25;;;;;;;3.03;1.45;;;;;;;;;;4983359;28;20028;-72
2022/07/02 13:04:51;;;;;;;1.20;1.08;;;;;;;;;;4991111;28;20038;-74
2022/07/02 13:07:16;;;;;;;4.72;1.02;;;;;;;;;;4995052;28;20477;-66
2022/07/02 13:09:42;;;;;;;3.95;1.13;;;;;;;;;;4985020;28;20042;-71
2022/07/02 13:12:10;;;;;;;3.28;1.00;;;;;;;;;;4985340;28;20116;-69
2022/07/02 13:14:35;;;;;;;5.05;1.15;;;;;;;;;;4999311;28;20044;-70
2022/07/02 13:17:00;;;;;;;3.17;1.08;;;;;;;;;;4989083;28;20397;-70
2022/07/02 13:19:25;;;;;;;2.23;1.50;;;;;;;;;;4982076;28;20042;-71
2022/07/02 13:21:51;;;;;;;2.20;1.10;;;;;;;;;;4978336;28;20027;-69
2022/07/02 13:24:16;;;;;;;4.00;1.30;;;;;;;;;;4980837;28;20053;-69
2022/07/02 13:26:41;;;;;;;3.10;1.13;;;;;;;;;;4992929;28;20073;-72
2022/07/02 13:29:06;;;;;;;1.30;1.13;;;;;;;;;;4992087;28;20026;-68
2022/07/02 13:31:32;;;;;;;1.47;1.00;;;;;;;;;;4984394;28;20030;-68
2022/07/02 13:33:58;;;;;;;2.05;1.10;;;;;;;;;;4993692;28;20038;-71
2022/07/02 13:36:23;;;;;;;3.55;1.30;;;;;;;;;;4992476;28;20050;-71
2022/07/02 13:38:48;;;;;;;4.90;1.02;;;;;;;;;;4991077;28;20347;-71
2022/07/02 13:41:13;;;;;;;2.13;0.90;;;;;;;;;;4989566;28;20027;-69
2022/07/02 13:43:39;;;;;;;2.13;1.00;;;;;;;;;;4980836;28;20035;-71
2022/07/02 13:46:04;;;;;;;2.60;1.13;;;;;;;;;;4982611;28;20030;-70
2022/07/02 13:48:29;;;;;;;3.30;0.90;;;;;;;;;;4986903;28;20030;-71
2022/07/02 13:50:55;;;;;;;1.97;1.07;;;;;;;;;;4978441;28;20176;-69
2022/07/02 13:53:20;;;;;;;3.22;0.82;;;;;;;;;;4990547;28;20025;-70
2022/07/02 13:55:45;;;;;;;5.70;1.02;;;;;;;;;;4981876;28;20109;-68
2022/07/02 13:58:10;;;;;;;3.43;0.90;;;;;;;;;;4984516;28;20074;-69
2022/07/02 14:00:37;;;;;;;6.10;1.20;;;;;;;;;;4988157;28;20487;-70
2022/07/02 14:03:02;;;;;;;3.20;0.90;;;;;;;;;;4981507;28;20110;-69
2022/07/02 14:05:28;;;;;;;3.87;1.20;;;;;;;;;;4977690;28;20027;-70
2022/07/02 14:07:53;;;;;;;11.40;1.70;;;;;;;;;;4980782;28;20096;-67
2022/07/02 14:10:18;;;;;;;2.70;0.83;;;;;;;;;;4989500;28;20049;-69
2022/07/02 14:12:43;;;;;;;4.30;1.33;;;;;;;;;;4976497;28;20022;-68
2022/07/02 14:15:09;;;;;;;1.20;1.00;;;;;;;;;;4993312;28;20028;-67
2022/07/02 14:17:34;;;;;;;2.72;1.05;;;;;;;;;;4982606;28;20038;-68
2022/07/02 14:19:59;;;;;;;6.10;1.23;;;;;;;;;;4981806;28;20030;-69
2022/07/02 14:22:29;;;;;;;4.05;1.20;;;;;;;;;;4980921;28;20038;-71
2022/07/02 14:24:54;;;;;;;4.60;1.33;;;;;;;;;;4980616;28;20026;-68
2022/07/02 14:27:19;;;;;;;2.13;1.15;;;;;;;;;;4981492;28;20041;-70
2022/07/02 14:29:45;;;;;;;1.30;1.10;;;;;;;;;;4980631;28;20271;-70
2022/07/02 14:32:10;;;;;;;1.23;1.02;;;;;;;;;;4981857;28;20022;-69
2022/07/02 14:34:35;;;;;;;1.13;1.07;;;;;;;;;;4978464;28;20030;-68
2022/07/02 14:37:01;;;;;;;4.53;1.10;;;;;;;;;;4979658;28;20026;-68